Orcas, WA (98280)

1:33 AM PST on February 08, 2016 (GMT -0800)
Blakely island 49 | | Change Station
CLOSE
Current Station
Personal Weather Station
Location: Washington, WA
Elevation: -3 ft
Nearby Weather Stations

Elev -3 ft 48.58 °N, 122.82 °W | Updated 8 seconds ago

Mostly Cloudy
Mostly Cloudy
47.1 °F
Feels Like 47 °F
N
0.9
Wind Variable Wind from NW
Gusts 3.0 mph

Today
High -- | Low -- °F
--% Chance of Precip.
Yesterday
High -- | Low -- °F
Precip. -- in
Pressure 30.51 in
Visibility 10.0 miles
Clouds Scattered Clouds 7500 ft
Windchill 47 °F
Dew Point 42 °F
Humidity 82%
Rainfall 0.00 in
Snow Depth Not available.
7:31 AM 5:20 PM
Waning Crescent, 0% visible
METAR KORS 080915Z AUTO 36005KT 10SM SCT075 08/05 A3051 RMK AO2
Pressure 30.51 in
Visibility 10.0 miles
Clouds Scattered Clouds 7500 ft
Windchill 47 °F
Dew Point 42 °F
Humidity 82%
Rainfall 0.00 in
Snow Depth Not available.
7:31 AM 5:20 PM
Waning Crescent, 0% visible
METAR KORS 080915Z AUTO 36005KT 10SM SCT075 08/05 A3051 RMK AO2

10-Day Weather Forecast

Almanac

Astronomy

Feb. 08, 2016 Rise Set
Actual Time
Civil Twilight
Nautical Twilight
Astronomical Twilight
Moon
Length of Visible Light
Length of Day
Tomorrow will be .
, % of the Moon is Illuminated

Today's Extremes

State Highs State Lows

Community

WunderPhotos

Upload Photos

1,891,412 photos uploaded!

WunderBlog® & News

Nearby

Air Quality

  Air Quality AQ Index Pollutant
Not available.

Snow Depth

Station Depth Elevation

Earthquake Activity

City Distance Mag. Time & Date
Minimum magnitude displayed is 2.5.

Coastal Water Temperatures

Place Temperature

Stations

Nearby Weather Stations

Station Location Temp. Windchill Dew Point Humidity Wind Precip. Elev Updated Type
                   

Watches & Warnings

There are currently no watches in effect.